TimeCDT,TemperatureF,Dew PointF,Humidity,Sea Level PressureIn,VisibilityMPH,Wind Direction,Wind SpeedMPH,Gust SpeedMPH,PrecipitationIn,Events,Conditions,WindDirDegrees,DateUTC
12:53 AM,73.0,70.0,90,30.03,10.0,Calm,Calm,-,N/A,,Clear,0,2013-06-20 05:53:00
1:53 AM,72.0,70.0,93,30.02,7.0,Calm,Calm,-,N/A,,Clear,0,2013-06-20 06:53:00
2:53 AM,71.1,69.1,93,30.01,5.0,Calm,Calm,-,N/A,,Clear,0,2013-06-20 07:53:00
3:53 AM,72.0,69.1,91,30.02,9.0,Calm,Calm,-,N/A,,Clear,0,2013-06-20 08:53:00
4:53 AM,71.1,68.0,90,30.03,9.0,Calm,Calm,-,N/A,,Clear,0,2013-06-20 09:53:00
5:53 AM,70.0,68.0,93,30.05,6.0,Calm,Calm,-,N/A,,Clear,0,2013-06-20 10:53:00
6:53 AM,72.0,70.0,93,30.07,4.0,Calm,Calm,-,N/A,,Clear,0,2013-06-20 11:53:00
7:53 AM,75.9,71.1,85,30.09,8.0,ESE,5.8,-,N/A,,Clear,120,2013-06-20 12:53:00
8:53 AM,80.1,71.1,74,30.10,10.0,SSE,3.5,-,N/A,,Clear,160,2013-06-20 13:53:00
9:53 AM,84.0,72.0,67,30.10,10.0,SE,5.8,-,N/A,,Clear,130,2013-06-20 14:53:00
10:53 AM,86.0,70.0,59,30.11,10.0,SE,10.4,-,N/A,,Partly Cloudy,140,2013-06-20 15:53:00
11:53 AM,86.0,70.0,59,30.11,10.0,South,6.9,-,N/A,,Mostly Cloudy,180,2013-06-20 16:53:00
12:53 PM,88.0,68.0,51,30.09,10.0,SE,8.1,-,N/A,,Scattered Clouds,140,2013-06-20 17:53:00
1:53 PM,90.0,69.1,50,30.08,10.0,Variable,6.9,-,N/A,,Partly Cloudy,0,2013-06-20 18:53:00
2:53 PM,90.0,68.0,48,30.07,10.0,South,6.9,-,N/A,,Partly Cloudy,180,2013-06-20 19:53:00
3:53 PM,89.1,68.0,50,30.06,10.0,South,5.8,-,N/A,,Clear,190,2013-06-20 20:53:00
4:53 PM,90.0,69.1,50,30.04,10.0,South,4.6,-,N/A,,Partly Cloudy,180,2013-06-20 21:53:00
5:53 PM,90.0,68.0,48,30.02,10.0,South,6.9,-,N/A,,Clear,170,2013-06-20 22:53:00
6:53 PM,89.1,69.1,52,30.03,10.0,South,6.9,-,N/A,,Clear,190,2013-06-20 23:53:00
7:53 PM,84.9,71.1,63,30.03,10.0,SSE,5.8,-,N/A,,Clear,150,2013-06-21 00:53:00
8:53 PM,81.0,73.9,79,30.04,10.0,Calm,Calm,-,N/A,,Clear,0,2013-06-21 01:53:00
9:53 PM,78.1,73.9,87,30.05,10.0,ESE,4.6,-,N/A,,Clear,120,2013-06-21 02:53:00
10:53 PM,77.0,73.9,90,30.07,10.0,Calm,Calm,-,N/A,,Clear,0,2013-06-21 03:53:00
11:53 PM,77.0,73.0,88,30.08,10.0,ESE,4.6,-,N/A,,Clear,110,2013-06-21 04:53:00